Lake Lancelot, Illinois
Current Conditions -  °F | °C
As of 2:54 AM on Monday 20 Oct 2014 (Local Time) from KPIA Reporting Station
Clear Clear  
Wind Chill: 50°   Ceiling: Unl
Heat Index: 50°   Visibility: 10mi
Dew Point: 44°   Wind: 7mph
Humidity: 80%   Direction: 210°SSW
Pressure: 29.9"   Gusts: NA
Location:  40.5976°N, 89.727°W
Report Text: KPIA 200754Z 21006KT 10SM CLR 10/07 A2990 RMK AO2 SLP125 T01000067
Loading
Personal Weather Stations






























Interactive Weather Map
Tropical Storm Tracking
New forecast layout! Learn more

10-Day Weather Forecast

Advertisements
Track Severe Weather on mobile